Time;durP1;ratioP1;P1;durP2;ratioP2;P2;SDS_P1;SDS_P2;PMS_P1;PMS_P2;Temp;Humidity;BMP_temperature;BMP_pressure;BME280_temperature;BME280_humidity;BME280_pressure;Samples;Min_cycle;Max_cycle;Signal;HPM_P1;HPM_P2
2022/10/13 00:02:11;;;;;;;;;;;13.40;88.70;;;;;;5096765;28;19959;-87
2022/10/13 00:04:37;;;;;;;;;;;13.40;88.40;;;;;;5096766;28;19941;-87
2022/10/13 00:07:02;;;;;;;;;;;13.40;88.20;;;;;;5095472;28;19990;-87
2022/10/13 00:09:28;;;;;;;;;;;13.30;87.90;;;;;;5096061;28;19947;-87
2022/10/13 00:11:56;;;;;;;;;;;13.30;87.70;;;;;;5096634;28;19954;-87
2022/10/13 00:14:21;;;;;;;;;;;13.20;87.70;;;;;;5096623;28;20414;-87
2022/10/13 00:16:47;;;;;;;;;;;13.10;87.60;;;;;;5096521;28;19945;-87
2022/10/13 00:19:12;;;;;;;;;;;13.20;88.10;;;;;;5094751;28;19953;-87
2022/10/13 00:21:38;;;;;;;;;;;13.20;88.00;;;;;;5096208;28;19977;-87
2022/10/13 00:24:03;;;;;;;;;;;13.20;88.40;;;;;;5096341;28;19936;-88
2022/10/13 00:26:29;;;;;;;;;;;13.10;88.00;;;;;;5096365;28;19938;-87
2022/10/13 00:28:55;;;;;;;;;;;13.00;87.80;;;;;;5093264;28;20044;-87
2022/10/13 00:31:25;;;;;;;;;;;13.00;87.40;;;;;;5096499;28;20026;-87
2022/10/13 00:33:51;;;;;;;;;;;13.00;86.70;;;;;;5096223;28;20032;-87
2022/10/13 00:36:18;;;;;;;;;;;13.00;87.00;;;;;;5096109;28;20026;-87
2022/10/13 00:38:43;;;;;;;;;;;13.10;87.70;;;;;;5081849;28;19967;-87
2022/10/13 00:41:09;;;;;;;;;;;13.20;88.10;;;;;;5075692;28;19940;-87
2022/10/13 00:43:53;;;;;;;;;;;13.10;87.60;;;;;;5075813;28;20048;-88
2022/10/13 00:46:19;;;;;;;;;;;12.90;88.40;;;;;;5075702;28;19985;-87
2022/10/13 00:48:45;;;;;;;;;;;12.90;88.70;;;;;;5087126;28;19947;-87
2022/10/13 00:51:13;;;;;;;;;;;12.90;89.20;;;;;;5095714;28;19952;-87
2022/10/13 00:53:39;;;;;;;;;;;12.90;89.00;;;;;;5095409;28;20394;-87
2022/10/13 00:56:06;;;;;;;;;;;12.90;88.80;;;;;;5095706;28;19941;-87
2022/10/13 00:58:33;;;;;;;;;;;12.90;89.20;;;;;;5094075;28;20413;-87
2022/10/13 01:00:58;;;;;;;;;;;12.80;89.30;;;;;;5095668;28;19942;-87
2022/10/13 01:03:24;;;;;;;;;;;12.80;89.50;;;;;;5095540;28;19962;-87
2022/10/13 01:05:51;;;;;;;;;;;12.80;89.30;;;;;;5095855;28;19939;-87
2022/10/13 01:08:17;;;;;;;;;;;12.70;89.00;;;;;;5093872;28;19955;-87
2022/10/13 01:10:43;;;;;;;;;;;12.70;89.00;;;;;;5095536;28;20027;-88
2022/10/13 01:13:09;;;;;;;;;;;12.70;89.60;;;;;;5095726;28;20481;-87
2022/10/13 01:15:40;;;;;;;;;;;12.70;89.50;;;;;;5095423;28;19955;-87
2022/10/13 01:18:12;;;;;;;;;;;12.80;89.30;;;;;;5093742;28;19952;-88
2022/10/13 01:20:46;;;;;;;;;;;12.80;89.60;;;;;;5095279;28;19943;-87
2022/10/13 01:23:14;;;;;;;;;;;12.90;89.70;;;;;;5095494;28;19979;-87
2022/10/13 01:25:57;;;;;;;;;;;12.90;89.00;;;;;;5095220;28;19935;-87
2022/10/13 01:28:26;;;;;;;;;;;12.90;88.80;;;;;;5093153;28;19957;-88
2022/10/13 01:31:01;;;;;;;;;;;12.90;88.70;;;;;;5095191;28;19946;-87
2022/10/13 01:33:39;;;;;;;;;;;12.90;88.80;;;;;;5095102;28;19942;-88
2022/10/13 01:36:08;;;;;;;;;;;12.90;88.70;;;;;;5095045;28;20385;-87
2022/10/13 01:38:54;;;;;;;;;;;12.90;88.30;;;;;;5093304;28;19958;-87
2022/10/13 01:41:29;;;;;;;;;;;12.80;88.20;;;;;;5094805;28;20385;-87
2022/10/13 01:43:59;;;;;;;;;;;12.80;88.10;;;;;;5094886;28;20037;-87
2022/10/13 01:46:27;;;;;;;;;;;12.70;88.40;;;;;;5095146;28;19947;-87
2022/10/13 01:48:54;;;;;;;;;;;12.60;88.90;;;;;;5091705;28;19954;-87
2022/10/13 01:51:22;;;;;;;;;;;12.60;89.00;;;;;;5086383;28;19970;-87
2022/10/13 01:53:48;;;;;;;;;;;12.50;88.90;;;;;;5074436;28;19954;-87
2022/10/13 01:56:14;;;;;;;;;;;12.50;89.50;;;;;;5074386;28;19939;-87
2022/10/13 01:58:39;;;;;;;;;;;12.50;88.80;;;;;;5083572;28;19948;-87
2022/10/13 02:01:11;;;;;;;;;;;12.50;88.80;;;;;;5093300;28;19956;-87
2022/10/13 02:03:50;;;;;;;;;;;12.40;88.40;;;;;;5073296;28;19952;-88
2022/10/13 02:06:20;;;;;;;;;;;12.40;88.40;;;;;;5073621;28;20031;-87
2022/10/13 02:08:59;;;;;;;;;;;12.40;87.90;;;;;;5073120;28;19959;-87
2022/10/13 02:11:26;;;;;;;;;;;12.30;88.10;;;;;;5074104;28;20410;-87
2022/10/13 02:13:57;;;;;;;;;;;12.40;88.20;;;;;;5074095;28;19937;-87
2022/10/13 02:16:23;;;;;;;;;;;12.40;88.60;;;;;;5074012;28;20294;-87
2022/10/13 02:18:50;;;;;;;;;;;12.40;90.20;;;;;;5084812;28;19946;-87
2022/10/13 02:21:16;;;;;;;;;;;12.30;89.50;;;;;;5093950;28;19976;-87
2022/10/13 02:23:42;;;;;;;;;;;12.30;89.20;;;;;;5084789;28;20447;-88
2022/10/13 02:26:08;;;;;;;;;;;12.20;88.60;;;;;;5073868;28;19942;-87
2022/10/13 02:28:35;;;;;;;;;;;12.00;88.60;;;;;;5073782;28;19951;-87
2022/10/13 02:31:00;;;;;;;;;;;12.00;89.30;;;;;;5073758;28;19935;-87
2022/10/13 02:33:26;;;;;;;;;;;12.00;89.00;;;;;;5072649;28;19949;-87
2022/10/13 02:35:51;;;;;;;;;;;12.00;89.10;;;;;;5073662;28;20013;-87
2022/10/13 02:38:17;;;;;;;;;;;12.00;89.80;;;;;;5073609;28;19970;-87
2022/10/13 02:40:43;;;;;;;;;;;12.10;90.20;;;;;;5073872;28;19943;-87
2022/10/13 02:43:08;;;;;;;;;;;12.20;89.90;;;;;;5075077;28;20050;-87
2022/10/13 02:45:34;;;;;;;;;;;12.30;89.50;;;;;;5093705;28;20033;-87
2022/10/13 02:47:59;;;;;;;;;;;12.30;89.30;;;;;;5093661;28;19940;-87
2022/10/13 02:50:25;;;;;;;;;;;12.30;89.30;;;;;;5093884;28;20032;-88
2022/10/13 02:52:50;;;;;;;;;;;12.20;89.50;;;;;;5092034;28;20416;-87
2022/10/13 02:55:16;;;;;;;;;;;12.10;89.40;;;;;;5093261;28;19948;-87
2022/10/13 02:57:42;;;;;;;;;;;12.10;89.20;;;;;;5093561;28;19945;-87
2022/10/13 03:00:13;;;;;;;;;;;12.10;89.60;;;;;;5093576;28;19936;-87
2022/10/13 03:02:39;;;;;;;;;;;12.00;89.50;;;;;;5093375;28;20003;-88
2022/10/13 03:05:04;;;;;;;;;;;12.00;89.30;;;;;;5073652;28;19987;-87
2022/10/13 03:07:30;;;;;;;;;;;11.90;88.50;;;;;;5073228;28;19943;-87
2022/10/13 03:09:56;;;;;;;;;;;11.90;88.70;;;;;;5073197;28;19970;-87
2022/10/13 03:12:21;;;;;;;;;;;12.00;88.70;;;;;;5073202;28;20038;-87
2022/10/13 03:14:47;;;;;;;;;;;12.00;88.60;;;;;;5087890;28;19948;-87
2022/10/13 03:17:12;;;;;;;;;;;11.90;88.70;;;;;;5093188;28;19946;-88
2022/10/13 03:19:38;;;;;;;;;;;12.00;89.70;;;;;;5093316;28;19940;-87
2022/10/13 03:22:03;;;;;;;;;;;11.90;89.50;;;;;;5089537;28;19975;-87
2022/10/13 03:24:29;;;;;;;;;;;11.90;89.40;;;;;;5091252;28;19954;-87
2022/10/13 03:26:54;;;;;;;;;;;11.90;88.90;;;;;;5093205;28;19947;-87
2022/10/13 03:29:21;;;;;;;;;;;11.80;89.50;;;;;;5093184;28;19933;-87
2022/10/13 03:31:46;;;;;;;;;;;11.90;89.30;;;;;;5091482;28;19947;-87
2022/10/13 03:34:14;;;;;;;;;;;11.90;89.10;;;;;;5093108;28;19997;-87
2022/10/13 03:36:39;;;;;;;;;;;11.90;89.00;;;;;;5092311;28;19939;-87
2022/10/13 03:39:05;;;;;;;;;;;11.90;89.10;;;;;;5090569;28;19975;-87
2022/10/13 03:41:31;;;;;;;;;;;11.80;88.90;;;;;;5093018;28;20348;-87
2022/10/13 03:43:56;;;;;;;;;;;11.80;89.30;;;;;;5093085;28;20289;-87
2022/10/13 03:46:23;;;;;;;;;;;11.80;89.50;;;;;;5093023;28;19934;-87
2022/10/13 03:48:48;;;;;;;;;;;11.80;89.40;;;;;;5091333;28;19949;-87
2022/10/13 03:51:16;;;;;;;;;;;11.90;89.00;;;;;;5092833;28;20331;-87
2022/10/13 03:53:41;;;;;;;;;;;11.90;89.10;;;;;;5092966;28;19939;-87
2022/10/13 03:56:11;;;;;;;;;;;11.90;88.60;;;;;;5092843;28;19953;-87
2022/10/13 03:58:36;;;;;;;;;;;11.90;88.60;;;;;;5091214;28;20476;-87
2022/10/13 04:01:03;;;;;;;;;;;11.90;88.10;;;;;;5092883;28;20041;-87
2022/10/13 04:03:29;;;;;;;;;;;11.80;88.50;;;;;;5092754;28;19997;-87
2022/10/13 04:05:54;;;;;;;;;;;11.70;88.20;;;;;;5092897;28;19991;-87
2022/10/13 04:08:20;;;;;;;;;;;11.60;89.80;;;;;;5078270;28;19950;-87
2022/10/13 04:10:45;;;;;;;;;;;11.50;89.60;;;;;;5080143;28;19943;-87
2022/10/13 04:13:11;;;;;;;;;;;11.50;89.90;;;;;;5092753;28;20408;-87
2022/10/13 04:15:37;;;;;;;;;;;11.40;90.30;;;;;;5088696;28;20435;-87
2022/10/13 04:18:04;;;;;;;;;;;11.40;90.90;;;;;;5092007;28;20026;-87
2022/10/13 04:20:29;;;;;;;;;;;11.30;91.30;;;;;;5092660;28;19939;-87
2022/10/13 04:22:55;;;;;;;;;;;11.30;90.70;;;;;;5092458;28;19983;-87
2022/10/13 04:25:20;;;;;;;;;;;11.20;91.30;;;;;;5090512;28;20395;-87
2022/10/13 04:27:47;;;;;;;;;;;11.30;91.80;;;;;;5092636;28;19994;-87
2022/10/13 04:30:13;;;;;;;;;;;11.40;92.10;;;;;;5094898;28;19935;-88
2022/10/13 04:32:38;;;;;;;;;;;11.30;92.20;;;;;;5095123;28;19945;-87
2022/10/13 04:35:04;;;;;;;;;;;11.40;92.40;;;;;;5086672;28;20323;-87
2022/10/13 04:37:29;;;;;;;;;;;11.40;92.40;;;;;;5096472;28;19941;-87
2022/10/13 04:39:55;;;;;;;;;;;11.30;92.60;;;;;;5096077;28;20017;-87
2022/10/13 04:42:20;;;;;;;;;;;11.40;92.70;;;;;;5096026;28;19955;-87
2022/10/13 04:44:46;;;;;;;;;;;11.40;92.70;;;;;;5084440;28;20356;-87
2022/10/13 04:47:11;;;;;;;;;;;11.40;92.80;;;;;;5074485;28;19944;-88
2022/10/13 04:49:37;;;;;;;;;;;11.30;92.90;;;;;;5075647;28;19941;-87
2022/10/13 04:52:02;;;;;;;;;;;11.30;92.80;;;;;;5075379;28;19956;-88
2022/10/13 04:54:28;;;;;;;;;;;11.30;91.80;;;;;;5080920;28;19949;-87
2022/10/13 04:56:53;;;;;;;;;;;11.30;91.90;;;;;;5080550;28;19944;-87
2022/10/13 04:59:19;;;;;;;;;;;11.20;91.40;;;;;;5091576;28;19944;-87
2022/10/13 05:01:44;;;;;;;;;;;11.20;90.80;;;;;;5095642;28;20434;-87
2022/10/13 05:04:10;;;;;;;;;;;11.20;91.70;;;;;;5092577;28;19980;-87
2022/10/13 05:06:37;;;;;;;;;;;11.30;92.20;;;;;;5074498;28;19946;-87
2022/10/13 05:09:02;;;;;;;;;;;11.30;91.90;;;;;;5075363;28;19993;-87
2022/10/13 05:11:28;;;;;;;;;;;11.40;91.90;;;;;;5075324;28;19942;-87
2022/10/13 05:13:54;;;;;;;;;;;11.50;91.70;;;;;;5075594;28;19940;-87
2022/10/13 05:16:21;;;;;;;;;;;11.50;91.40;;;;;;5095159;28;19937;-87
2022/10/13 05:18:47;;;;;;;;;;;11.50;91.10;;;;;;5095257;28;20401;-87
2022/10/13 05:21:17;;;;;;;;;;;11.50;91.00;;;;;;5085719;28;20055;-87
2022/10/13 05:23:44;;;;;;;;;;;11.50;91.10;;;;;;5094605;28;19948;-87
2022/10/13 05:26:13;;;;;;;;;;;11.40;91.50;;;;;;5081473;28;19948;-87
2022/10/13 05:28:38;;;;;;;;;;;11.40;91.20;;;;;;5074541;28;19941;-86
2022/10/13 05:31:08;;;;;;;;;;;11.50;91.50;;;;;;5076851;28;19950;-86
2022/10/13 05:33:34;;;;;;;;;;;11.90;90.40;;;;;;5067465;28;19947;-86
2022/10/13 05:36:03;;;;;;;;;;;12.20;89.50;;;;;;5080076;28;20454;-87
2022/10/13 05:38:29;;;;;;;;;;;12.50;88.50;;;;;;5085677;28;19951;-87
2022/10/13 05:40:54;;;;;;;;;;;12.70;87.70;;;;;;5081709;28;19939;-87
2022/10/13 05:43:20;;;;;;;;;;;12.90;86.50;;;;;;5086731;28;19963;-87
2022/10/13 05:45:45;;;;;;;;;;;13.00;85.30;;;;;;5073972;28;19944;-88
2022/10/13 05:48:11;;;;;;;;;;;13.10;84.40;;;;;;5094851;28;20033;-88
2022/10/13 05:50:37;;;;;;;;;;;13.20;83.80;;;;;;5085833;28;19957;-88
2022/10/13 05:53:02;;;;;;;;;;;13.20;83.20;;;;;;5071691;28;19953;-87
2022/10/13 05:55:28;;;;;;;;;;;13.10;84.00;;;;;;5066420;28;19941;-87
2022/10/13 05:57:53;;;;;;;;;;;12.90;85.60;;;;;;5071454;28;19989;-91
2022/10/13 06:00:19;;;;;;;;;;;12.90;87.20;;;;;;5061146;28;20027;-88
2022/10/13 06:02:44;;;;;;;;;;;12.90;87.80;;;;;;5080553;28;19965;-88
2022/10/13 06:05:13;;;;;;;;;;;12.90;85.90;;;;;;5071326;28;19952;-88
2022/10/13 06:07:39;;;;;;;;;;;12.60;85.80;;;;;;5072544;28;19973;-88
2022/10/13 06:10:05;;;;;;;;;;;12.50;86.60;;;;;;5067398;28;20424;-88
2022/10/13 06:12:30;;;;;;;;;;;12.40;85.60;;;;;;5068587;28;19943;-88
2022/10/13 06:14:56;;;;;;;;;;;12.40;85.20;;;;;;5070338;28;20391;-88
2022/10/13 06:17:21;;;;;;;;;;;12.30;85.60;;;;;;5071424;28;19972;-89
2022/10/13 06:19:47;;;;;;;;;;;12.30;86.40;;;;;;5073866;28;20358;-90
2022/10/13 06:22:12;;;;;;;;;;;12.30;86.80;;;;;;5067463;28;20600;-89
2022/10/13 06:24:38;;;;;;;;;;;12.40;87.00;;;;;;5068164;28;20043;-89
2022/10/13 06:27:03;;;;;;;;;;;12.30;87.10;;;;;;5069616;28;20001;-89
2022/10/13 06:29:29;;;;;;;;;;;12.30;87.10;;;;;;5070581;28;20343;-88
2022/10/13 06:31:55;;;;;;;;;;;12.20;87.60;;;;;;5071903;28;19969;-89
2022/10/13 06:34:20;;;;;;;;;;;12.10;88.30;;;;;;5077059;28;19942;-90
2022/10/13 06:36:46;;;;;;;;;;;12.20;88.80;;;;;;5088862;28;19938;-86
2022/10/13 06:39:11;;;;;;;;;;;12.30;88.90;;;;;;5069429;28;20038;-87
2022/10/13 06:41:37;;;;;;;;;;;12.40;89.00;;;;;;5059625;28;20002;-87
2022/10/13 06:44:02;;;;;;;;;;;12.50;89.20;;;;;;5053640;28;20073;-86
2022/10/13 06:46:28;;;;;;;;;;;12.70;89.30;;;;;;5055703;28;20009;-86
2022/10/13 06:48:53;;;;;;;;;;;12.90;89.30;;;;;;5061576;28;19946;-86
2022/10/13 06:51:20;;;;;;;;;;;12.90;89.40;;;;;;5065990;28;20408;-86
2022/10/13 06:53:45;;;;;;;;;;;13.00;89.50;;;;;;5066534;28;19948;-86
2022/10/13 06:56:11;;;;;;;;;;;13.10;89.40;;;;;;5071565;28;20380;-87
2022/10/13 06:58:37;;;;;;;;;;;13.20;89.50;;;;;;5070412;28;20606;-86
2022/10/13 07:01:03;;;;;;;;;;;13.40;89.20;;;;;;5073173;28;19939;-87
2022/10/13 07:03:28;;;;;;;;;;;13.70;88.40;;;;;;5072912;28;20036;-87
2022/10/13 07:05:58;;;;;;;;;;;13.80;88.10;;;;;;5066021;28;20000;-87
2022/10/13 07:08:24;;;;;;;;;;;13.90;87.20;;;;;;5073868;28;20009;-86
2022/10/13 07:10:50;;;;;;;;;;;14.00;85.80;;;;;;5072381;28;20394;-86
2022/10/13 07:13:15;;;;;;;;;;;13.90;85.70;;;;;;5064138;28;20391;-86
2022/10/13 07:15:41;;;;;;;;;;;13.90;86.00;;;;;;5066094;28;19962;-87
2022/10/13 07:18:06;;;;;;;;;;;14.00;85.90;;;;;;5062324;28;19957;-87
2022/10/13 07:20:32;;;;;;;;;;;14.00;86.20;;;;;;5067786;28;19948;-87
2022/10/13 07:22:58;;;;;;;;;;;14.30;85.90;;;;;;5057208;22;20060;-87
2022/10/13 07:25:23;;;;;;;;;;;14.50;86.00;;;;;;5049057;28;19948;-87
2022/10/13 07:27:49;;;;;;;;;;;14.60;85.70;;;;;;5057926;28;19943;-87
2022/10/13 07:30:15;;;;;;;;;;;14.60;85.80;;;;;;5048596;28;19955;-87
2022/10/13 07:32:41;;;;;;;;;;;14.80;85.90;;;;;;5062153;28;20488;-86
2022/10/13 07:35:10;;;;;;;;;;;15.10;84.70;;;;;;5049386;28;19949;-87
2022/10/13 07:37:35;;;;;;;;;;;15.30;84.10;;;;;;5052004;28;19948;-87
2022/10/13 07:40:02;;;;;;;;;;;15.60;83.60;;;;;;5054147;28;19950;-86
2022/10/13 07:42:27;;;;;;;;;;;15.70;83.30;;;;;;5070978;28;19978;-87
2022/10/13 07:44:53;;;;;;;;;;;15.80;83.10;;;;;;5054378;28;20000;-87
2022/10/13 07:47:18;;;;;;;;;;;15.90;82.80;;;;;;5047512;28;20397;-87
2022/10/13 07:49:44;;;;;;;;;;;16.00;82.60;;;;;;5031142;28;19953;-87
2022/10/13 07:52:09;;;;;;;;;;;16.10;82.60;;;;;;5034555;28;19943;-87
2022/10/13 07:54:35;;;;;;;;;;;16.20;82.60;;;;;;5029940;28;20474;-87
2022/10/13 07:57:00;;;;;;;;;;;16.50;81.40;;;;;;5030052;28;20387;-87
2022/10/13 07:59:26;;;;;;;;;;;16.80;80.00;;;;;;5031025;28;20361;-86
2022/10/13 08:01:51;;;;;;;;;;;16.60;79.00;;;;;;5026096;28;20433;-86
2022/10/13 08:04:17;;;;;;;;;;;16.70;78.70;;;;;;5030534;28;20441;-86
2022/10/13 08:06:43;;;;;;;;;;;16.60;79.10;;;;;;5031215;28;20363;-86
2022/10/13 08:09:08;;;;;;;;;;;16.70;77.80;;;;;;5035041;28;19954;-87
2022/10/13 08:11:34;;;;;;;;;;;16.80;78.10;;;;;;5033085;28;19954;-87
2022/10/13 08:14:00;;;;;;;;;;;16.90;78.20;;;;;;5032159;28;20031;-87
2022/10/13 08:16:26;;;;;;;;;;;17.10;77.50;;;;;;5033474;28;19948;-87
2022/10/13 08:18:52;;;;;;;;;;;17.40;75.60;;;;;;5012038;28;19990;-86
2022/10/13 08:21:18;;;;;;;;;;;17.70;75.00;;;;;;5027013;28;20427;-86
2022/10/13 08:23:44;;;;;;;;;;;17.80;74.20;;;;;;5035309;28;19965;-86
2022/10/13 08:26:14;;;;;;;;;;;17.90;74.20;;;;;;5032507;28;19980;-86
2022/10/13 08:28:39;;;;;;;;;;;18.00;73.70;;;;;;5033739;28;20598;-86
2022/10/13 08:31:05;;;;;;;;;;;18.10;73.90;;;;;;5032805;28;20404;-86
2022/10/13 08:33:30;;;;;;;;;;;18.10;73.40;;;;;;5033123;28;19951;-87
2022/10/13 08:35:56;;;;;;;;;;;18.10;73.20;;;;;;5028091;28;19997;-87
2022/10/13 08:38:22;;;;;;;;;;;18.00;73.00;;;;;;5032756;28;19950;-87
2022/10/13 08:40:48;;;;;;;;;;;18.00;72.80;;;;;;5029949;28;20011;-87
2022/10/13 08:43:15;;;;;;;;;;;18.20;72.90;;;;;;5032410;28;19943;-86
2022/10/13 08:45:41;;;;;;;;;;;18.30;71.70;;;;;;5010435;28;19947;-88
2022/10/13 08:48:16;;;;;;;;;;;18.30;70.50;;;;;;5033245;28;19953;-87
2022/10/13 08:50:43;;;;;;;;;;;18.30;70.90;;;;;;5030767;28;19990;-86
2022/10/13 08:53:14;;;;;;;;;;;18.30;71.20;;;;;;5031961;28;19947;-86
2022/10/13 08:55:44;;;;;;;;;;;18.50;69.10;;;;;;5032167;28;19950;-86
2022/10/13 08:58:19;;;;;;;;;;;18.80;68.50;;;;;;5031081;28;19947;-87
2022/10/13 09:00:45;;;;;;;;;;;18.80;68.40;;;;;;5028559;28;20002;-87
2022/10/13 09:03:22;;;;;;;;;;;18.80;69.20;;;;;;5027453;28;20349;-87
2022/10/13 09:05:55;;;;;;;;;;;18.80;67.90;;;;;;5032924;28;20320;-87
2022/10/13 09:08:22;;;;;;;;;;;19.00;67.10;;;;;;5032450;28;19946;-87
2022/10/13 09:10:48;;;;;;;;;;;19.30;66.10;;;;;;5031513;28;19962;-86
2022/10/13 09:13:14;;;;;;;;;;;19.50;65.50;;;;;;5033136;28;19945;-87
2022/10/13 09:15:46;;;;;;;;;;;19.70;65.70;;;;;;5030007;28;19998;-86
2022/10/13 09:18:12;;;;;;;;;;;19.70;65.30;;;;;;5032305;28;19954;-86
2022/10/13 09:20:39;;;;;;;;;;;19.60;65.90;;;;;;5026116;28;19941;-86
2022/10/13 09:23:21;;;;;;;;;;;19.70;65.60;;;;;;5027141;28;20357;-87
2022/10/13 09:25:48;;;;;;;;;;;19.70;64.90;;;;;;5026546;28;19950;-87
2022/10/13 09:28:30;;;;;;;;;;;19.80;65.40;;;;;;5024208;28;19945;-87
2022/10/13 09:31:04;;;;;;;;;;;19.80;65.70;;;;;;5028556;28;19966;-87
2022/10/13 09:33:34;;;;;;;;;;;19.90;65.20;;;;;;5031193;28;20429;-87
2022/10/13 09:35:59;;;;;;;;;;;20.00;63.70;;;;;;5024278;28;19978;-86
2022/10/13 09:38:25;;;;;;;;;;;20.00;62.90;;;;;;5029037;28;19941;-86
2022/10/13 09:40:56;;;;;;;;;;;20.10;63.60;;;;;;5030605;28;20032;-86
2022/10/13 09:43:28;;;;;;;;;;;20.30;63.50;;;;;;5031383;28;20004;-87
2022/10/13 09:45:55;;;;;;;;;;;20.40;63.20;;;;;;5029658;28;20012;-86
2022/10/13 09:48:23;;;;;;;;;;;20.50;61.30;;;;;;5032316;28;19948;-86
2022/10/13 09:50:50;;;;;;;;;;;20.40;59.40;;;;;;5015505;28;19947;-86
2022/10/13 09:53:19;;;;;;;;;;;20.40;58.70;;;;;;5031493;28;19948;-86
2022/10/13 09:55:47;;;;;;;;;;;20.40;62.20;;;;;;5031142;28;19989;-86
2022/10/13 09:58:27;;;;;;;;;;;20.30;60.50;;;;;;5033458;28;20002;-86
2022/10/13 10:00:53;;;;;;;;;;;20.30;60.10;;;;;;5033385;28;19942;-86
2022/10/13 10:03:22;;;;;;;;;;;20.30;60.90;;;;;;5028844;28;20007;-86
2022/10/13 10:05:49;;;;;;;;;;;20.40;59.00;;;;;;5030579;28;19954;-86
2022/10/13 10:08:33;;;;;;;;;;;20.40;58.90;;;;;;5028040;28;19943;-86
2022/10/13 10:11:00;;;;;;;;;;;20.50;60.00;;;;;;5032553;28;20040;-86
2022/10/13 10:13:26;;;;;;;;;;;20.60;59.10;;;;;;5030773;28;19985;-86
2022/10/13 10:15:51;;;;;;;;;;;20.60;58.40;;;;;;5031927;28;19976;-86
2022/10/13 10:18:25;;;;;;;;;;;20.70;59.40;;;;;;5032794;28;20036;-86
2022/10/13 10:20:55;;;;;;;;;;;20.70;59.10;;;;;;5033254;28;19951;-86
2022/10/13 10:23:39;;;;;;;;;;;20.80;59.10;;;;;;5030657;28;19968;-86
2022/10/13 10:26:27;;;;;;;;;;;20.90;57.80;;;;;;5033046;28;19955;-86
2022/10/13 10:29:11;;;;;;;;;;;21.10;57.10;;;;;;5032544;28;19951;-86
2022/10/13 10:31:49;;;;;;;;;;;21.10;56.80;;;;;;5023384;28;19950;-86
2022/10/13 10:34:27;;;;;;;;;;;21.20;56.20;;;;;;5032475;28;19946;-86
2022/10/13 10:37:23;;;;;;;;;;;21.30;56.00;;;;;;5032901;28;19948;-86
2022/10/13 10:39:48;;;;;;;;;;;21.50;57.90;;;;;;4989452;28;19953;-86
2022/10/13 10:42:32;;;;;;;;;;;21.70;57.00;;;;;;5033581;28;20044;-86
2022/10/13 10:45:00;;;;;;;;;;;21.80;55.10;;;;;;5032768;28;19948;-86
2022/10/13 10:47:27;;;;;;;;;;;21.70;53.60;;;;;;5033621;28;19942;-86
2022/10/13 10:49:57;;;;;;;;;;;21.80;54.30;;;;;;5033496;28;19945;-86
2022/10/13 10:52:26;;;;;;;;;;;21.80;53.10;;;;;;5033090;28;20417;-86
2022/10/13 10:54:51;;;;;;;;;;;21.80;53.50;;;;;;5032554;28;19976;-86
2022/10/13 10:57:21;;;;;;;;;;;22.00;53.10;;;;;;5032726;28;19951;-86
2022/10/13 10:59:50;;;;;;;;;;;22.30;53.80;;;;;;5033374;28;20031;-87
2022/10/13 11:02:33;;;;;;;;;;;22.60;52.70;;;;;;5031860;28;20085;-86
2022/10/13 11:04:59;;;;;;;;;;;22.70;50.60;;;;;;5032327;28;19950;-86
2022/10/13 11:07:25;;;;;;;;;;;22.70;51.20;;;;;;5032478;28;19950;-86
2022/10/13 11:09:50;;;;;;;;;;;22.40;50.80;;;;;;5033060;28;20047;-86
2022/10/13 11:12:19;;;;;;;;;;;22.30;50.60;;;;;;5032314;28;20080;-86
2022/10/13 11:14:53;;;;;;;;;;;22.30;51.40;;;;;;5033200;28;19943;-86
2022/10/13 11:17:29;;;;;;;;;;;22.50;52.70;;;;;;5032333;28;19947;-86
2022/10/13 11:19:55;;;;;;;;;;;22.90;51.60;;;;;;5032944;28;19963;-86
2022/10/13 11:22:22;;;;;;;;;;;23.20;50.60;;;;;;5028311;28;19973;-86
2022/10/13 11:24:49;;;;;;;;;;;23.40;49.40;;;;;;5030754;28;20033;-86
2022/10/13 11:27:15;;;;;;;;;;;23.80;48.40;;;;;;5031641;28;20414;-86
2022/10/13 11:29:56;;;;;;;;;;;24.30;47.40;;;;;;5029599;28;19945;-86
2022/10/13 11:32:25;;;;;;;;;;;24.60;45.80;;;;;;5029066;28;20018;-86
2022/10/13 11:35:03;;;;;;;;;;;24.60;45.70;;;;;;5026866;28;19941;-86
2022/10/13 11:37:47;;;;;;;;;;;24.30;46.40;;;;;;5039326;28;19944;-86
2022/10/13 11:40:22;;;;;;;;;;;24.40;45.30;;;;;;5035552;28;20860;-86
2022/10/13 11:42:53;;;;;;;;;;;24.50;45.50;;;;;;5036120;28;19975;-87
2022/10/13 11:45:19;;;;;;;;;;;24.80;45.70;;;;;;5036006;28;19995;-87
2022/10/13 11:48:02;;;;;;;;;;;25.20;44.10;;;;;;5036124;28;19990;-87
2022/10/13 11:50:47;;;;;;;;;;;25.10;44.40;;;;;;5033536;28;19994;-87
2022/10/13 11:53:25;;;;;;;;;;;25.40;44.00;;;;;;5029981;28;20416;-87
2022/10/13 11:55:51;;;;;;;;;;;25.80;42.80;;;;;;5036346;28;20483;-87
2022/10/13 11:58:17;;;;;;;;;;;25.60;43.30;;;;;;5032101;28;19964;-86
2022/10/13 12:01:03;;;;;;;;;;;25.80;42.40;;;;;;5031716;28;20323;-86
2022/10/13 12:03:28;;;;;;;;;;;25.80;42.30;;;;;;5034540;28;20500;-86
2022/10/13 12:06:13;;;;;;;;;;;26.30;41.20;;;;;;5035159;28;19984;-86
2022/10/13 12:08:38;;;;;;;;;;;26.80;42.30;;;;;;5035110;28;19945;-87
2022/10/13 12:11:06;;;;;;;;;;;28.00;39.40;;;;;;5035022;28;20312;-87
2022/10/13 12:13:32;;;;;;;;;;;28.90;37.60;;;;;;5017733;28;19945;-86
2022/10/13 12:16:04;;;;;;;;;;;29.20;36.40;;;;;;5035440;28;20396;-87
2022/10/13 12:18:37;;;;;;;;;;;29.30;35.50;;;;;;5026900;28;19938;-86
2022/10/13 12:21:09;;;;;;;;;;;29.10;35.90;;;;;;5035957;28;19952;-86
2022/10/13 12:23:35;;;;;;;;;;;28.70;37.10;;;;;;5034409;28;20057;-86
2022/10/13 12:26:01;;;;;;;;;;;28.70;36.90;;;;;;5033541;28;19943;-87
2022/10/13 12:28:29;;;;;;;;;;;28.80;36.40;;;;;;5030811;28;20479;-87
2022/10/13 12:30:56;;;;;;;;;;;29.30;36.50;;;;;;5030742;28;19948;-87
2022/10/13 12:33:34;;;;;;;;;;;29.80;35.20;;;;;;5030424;28;19965;-87
2022/10/13 12:36:13;;;;;;;;;;;29.90;35.30;;;;;;5026112;28;19939;-86
2022/10/13 12:38:42;;;;;;;;;;;30.00;34.30;;;;;;5034312;28;19953;-87
2022/10/13 12:41:08;;;;;;;;;;;29.80;34.20;;;;;;5032871;28;19954;-87
2022/10/13 12:43:34;;;;;;;;;;;29.90;34.30;;;;;;5030644;28;19956;-87
2022/10/13 12:45:59;;;;;;;;;;;30.30;34.20;;;;;;5033961;28;19951;-87
2022/10/13 12:48:29;;;;;;;;;;;30.70;33.30;;;;;;5032816;28;19965;-87
2022/10/13 12:51:05;;;;;;;;;;;30.90;33.70;;;;;;5030064;28;20010;-87
2022/10/13 12:53:31;;;;;;;;;;;31.30;32.80;;;;;;5035200;28;19949;-87
2022/10/13 12:55:59;;;;;;;;;;;32.00;31.30;;;;;;5034661;28;19947;-87
2022/10/13 12:58:31;;;;;;;;;;;32.20;32.50;;;;;;5032205;28;20005;-87
2022/10/13 13:01:17;;;;;;;;;;;32.40;30.40;;;;;;5033780;28;19986;-87
2022/10/13 13:03:43;;;;;;;;;;;31.50;31.00;;;;;;5018731;28;19973;-87
2022/10/13 13:06:30;;;;;;;;;;;31.20;32.30;;;;;;5029417;28;20002;-87
2022/10/13 13:09:08;;;;;;;;;;;31.60;31.60;;;;;;5028161;28;19940;-87
2022/10/13 13:11:35;;;;;;;;;;;31.70;31.00;;;;;;5031976;28;19987;-87
2022/10/13 13:14:20;;;;;;;;;;;31.60;31.40;;;;;;5026250;28;20034;-87
2022/10/13 13:17:02;;;;;;;;;;;31.70;31.50;;;;;;5026140;28;19946;-87
2022/10/13 13:19:29;;;;;;;;;;;30.70;32.70;;;;;;5032136;28;19946;-86
2022/10/13 13:21:55;;;;;;;;;;;29.80;33.60;;;;;;5031375;28;20057;-87
2022/10/13 13:24:20;;;;;;;;;;;29.40;36.40;;;;;;5031738;28;20489;-87
2022/10/13 13:26:46;;;;;;;;;;;29.60;35.10;;;;;;5015787;28;20483;-87
2022/10/13 13:29:11;;;;;;;;;;;29.70;35.30;;;;;;5033253;28;19948;-87
2022/10/13 13:31:37;;;;;;;;;;;29.40;34.90;;;;;;5029684;28;20363;-86
2022/10/13 13:34:02;;;;;;;;;;;28.50;35.70;;;;;;5032685;28;20403;-87
2022/10/13 13:36:28;;;;;;;;;;;28.70;36.00;;;;;;5033188;28;19955;-87
2022/10/13 13:38:54;;;;;;;;;;;28.70;35.50;;;;;;5025348;28;19960;-87
2022/10/13 13:41:20;;;;;;;;;;;27.80;37.80;;;;;;5031489;28;19994;-87
2022/10/13 13:43:45;;;;;;;;;;;27.30;38.40;;;;;;5015169;28;19967;-87
2022/10/13 13:46:22;;;;;;;;;;;27.50;38.00;;;;;;5030639;28;19963;-87
2022/10/13 13:48:47;;;;;;;;;;;27.20;38.00;;;;;;5022859;28;19942;-87
2022/10/13 13:51:13;;;;;;;;;;;27.70;38.50;;;;;;5030050;28;20470;-87
2022/10/13 13:53:39;;;;;;;;;;;28.30;36.90;;;;;;5027815;28;19953;-87
2022/10/13 13:56:10;;;;;;;;;;;28.20;37.10;;;;;;5033322;28;20042;-87
2022/10/13 13:58:35;;;;;;;;;;;28.60;36.60;;;;;;5031453;28;19947;-87
2022/10/13 14:01:01;;;;;;;;;;;28.50;36.80;;;;;;5030352;28;20044;-87
2022/10/13 14:03:26;;;;;;;;;;;28.30;36.40;;;;;;5029361;28;19956;-87
2022/10/13 14:05:52;;;;;;;;;;;27.90;37.40;;;;;;5032832;28;19944;-87
2022/10/13 14:08:18;;;;;;;;;;;27.50;38.30;;;;;;5031657;28;19980;-87
2022/10/13 14:10:43;;;;;;;;;;;27.20;40.10;;;;;;5012428;28;19978;-87
2022/10/13 14:13:09;;;;;;;;;;;27.40;38.40;;;;;;5031958;28;19948;-87
2022/10/13 14:15:34;;;;;;;;;;;27.20;38.90;;;;;;5031496;28;20375;-87
2022/10/13 14:18:00;;;;;;;;;;;27.20;39.70;;;;;;5032597;28;20030;-86
2022/10/13 14:20:25;;;;;;;;;;;26.20;41.00;;;;;;5031580;28;20044;-86
2022/10/13 14:22:51;;;;;;;;;;;25.50;42.00;;;;;;5030068;28;19978;-86